Terminal Aerodrome Forecast
Issued by NWS

Home | Current Version | Previous Version | Text Only | Print | Product List | Glossary On
Versions: 1 2 3 4 5 6 7 8 9 10 11 12 13 14 15
000
FTUS43 KPAH 091700
TAFCGI
TAF
KCGI 091722Z 0918/1018 32006KT P6SM FEW060
     FM100100 01002KT P6SM FEW070
      TEMPO 1009/1011 3SM BR
     FM101400 04005KT P6SM FEW050=

USA.gov is the U.S. government's official web portal to all federal, state and local government web resources and services.